createdAt,value
2022-08-03T00:02:25.484Z,100909.06
2022-08-03T00:04:57.102Z,100907.99
2022-08-03T00:07:28.644Z,100912.92
2022-08-03T00:10:00.335Z,100907.11
2022-08-03T00:12:32.028Z,100909.27
2022-08-03T00:15:03.814Z,100908.80
2022-08-03T00:17:53.099Z,100910.08
2022-08-03T00:20:27.560Z,100908.99
2022-08-03T00:22:59.164Z,100911.20
2022-08-03T00:25:31.409Z,100909.25
2022-08-03T00:28:03.308Z,100906.18
2022-08-03T00:30:35.607Z,100910.67
2022-08-03T00:33:08.310Z,100909.81
2022-08-03T00:35:50.808Z,100905.88
2022-08-03T00:38:23.357Z,100901.80
2022-08-03T00:40:55.994Z,100903.36
2022-08-03T00:43:29.117Z,100900.05
2022-08-03T00:46:00.852Z,100894.52
2022-08-03T00:48:33.423Z,100894.52
2022-08-03T00:51:06.993Z,100895.38
2022-08-03T00:53:39.362Z,100894.25
2022-08-03T00:56:14.018Z,100892.66
2022-08-03T00:58:46.942Z,100893.30
2022-08-03T01:01:18.840Z,100893.45
2022-08-03T01:03:50.637Z,100890.53
2022-08-03T01:06:34.063Z,100890.21
2022-08-03T01:09:13.777Z,100884.95
2022-08-03T01:12:00.575Z,100885.03
2022-08-03T01:14:40.052Z,100882.03
2022-08-03T01:17:18.931Z,100877.31
2022-08-03T01:20:00.763Z,100873.83
2022-08-03T01:22:53.065Z,100872.89
2022-08-03T01:25:41.526Z,100874.69
2022-08-03T01:28:30.255Z,100877.46
2022-08-03T01:31:06.518Z,100871.80
2022-08-03T01:33:42.273Z,100873.35
2022-08-03T01:36:19.139Z,100873.96
2022-08-03T01:38:56.455Z,100873.82
2022-08-03T01:41:34.745Z,100872.36
2022-08-03T01:44:29.499Z,100871.88
2022-08-03T01:47:04.509Z,100868.24
2022-08-03T01:49:40.059Z,100862.48
2022-08-03T01:52:12.639Z,100864.21
2022-08-03T01:54:47.871Z,100866.65
2022-08-03T01:57:21.153Z,100864.45
2022-08-03T01:59:53.635Z,100865.52
2022-08-03T02:02:32.780Z,100862.35
2022-08-03T02:05:10.931Z,100862.96
2022-08-03T02:07:46.244Z,100861.60
2022-08-03T02:10:34.621Z,100863.20
2022-08-03T02:13:09.318Z,100858.30
2022-08-03T02:15:42.575Z,100858.29
2022-08-03T02:18:14.603Z,100855.94
2022-08-03T02:20:47.817Z,100849.69
2022-08-03T02:23:19.810Z,100848.67
2022-08-03T02:25:59.957Z,100846.54
2022-08-03T02:28:36.480Z,100841.42
2022-08-03T02:31:16.706Z,100841.02
2022-08-03T02:33:56.075Z,100839.92
2022-08-03T02:36:30.038Z,100837.64
2022-08-03T02:39:05.495Z,100840.48
2022-08-03T02:41:43.212Z,100837.90
2022-08-03T02:44:16.552Z,100841.36
2022-08-03T02:46:50.051Z,100843.65
2022-08-03T02:49:40.478Z,100843.50
2022-08-03T02:52:15.787Z,100843.32
2022-08-03T02:54:51.177Z,100843.52
2022-08-03T02:57:24.455Z,100842.73
2022-08-03T02:59:58.016Z,100843.31
2022-08-03T03:02:31.398Z,100846.21
2022-08-03T03:05:55.338Z,100845.61
2022-08-03T03:07:57.096Z,100848.13
2022-08-03T03:10:29.545Z,100848.75
2022-08-03T03:13:02.925Z,100850.30
2022-08-03T03:15:37.896Z,100849.73
2022-08-03T03:18:11.525Z,100849.41
2022-08-03T03:20:44.780Z,100848.95
2022-08-03T03:23:17.302Z,100849.33
2022-08-03T03:25:49.714Z,100847.52
2022-08-03T03:28:21.645Z,100849.80
2022-08-03T03:30:53.692Z,100847.45
2022-08-03T03:33:28.352Z,100849.04
2022-08-03T03:36:00.560Z,100849.91
2022-08-03T03:38:33.235Z,100848.73
2022-08-03T03:41:05.631Z,100847.48
2022-08-03T03:43:37.535Z,100848.29
2022-08-03T03:46:09.589Z,100852.33
2022-08-03T03:48:41.944Z,100852.36
2022-08-03T03:51:14.062Z,100850.88
2022-08-03T03:53:57.490Z,100854.43
2022-08-03T03:56:29.928Z,100853.59
2022-08-03T03:59:01.720Z,100857.94
2022-08-03T04:01:34.151Z,100861.41
2022-08-03T04:04:19.961Z,100857.27
2022-08-03T04:07:09.483Z,100862.71
2022-08-03T04:10:14.209Z,100869.75
2022-08-03T04:12:50.300Z,100867.19
2022-08-03T04:15:24.884Z,100868.95
2022-08-03T04:18:00.081Z,100870.77
2022-08-03T04:20:35.021Z,100870.10
2022-08-03T04:23:13.583Z,100871.14
2022-08-03T04:25:50.247Z,100871.27
2022-08-03T04:28:30.543Z,100865.75
2022-08-03T04:31:04.704Z,100869.30
2022-08-03T04:33:38.325Z,100870.02
2022-08-03T04:36:13.660Z,100875.70
2022-08-03T04:38:56.813Z,100872.23
2022-08-03T04:41:29.993Z,100871.94
2022-08-03T04:44:03.332Z,100874.95
2022-08-03T04:46:38.166Z,100880.14
2022-08-03T04:49:10.495Z,100883.30
2022-08-03T04:51:43.578Z,100885.48
2022-08-03T04:54:16.635Z,100885.02
2022-08-03T04:56:48.447Z,100878.06
2022-08-03T04:59:20.116Z,100878.05
2022-08-03T05:01:52.034Z,100880.29
2022-08-03T05:04:24.204Z,100880.27
2022-08-03T05:06:55.999Z,100888.80
2022-08-03T05:09:50.170Z,100892.23
2022-08-03T05:12:19.337Z,100892.20
2022-08-03T05:14:51.035Z,100893.59
2022-08-03T05:17:22.649Z,100894.02
2022-08-03T05:19:54.326Z,100892.56
2022-08-03T05:22:26.378Z,100895.86
2022-08-03T05:24:58.071Z,100892.34
2022-08-03T05:27:29.837Z,100888.66
2022-08-03T05:30:31.190Z,100884.29
2022-08-03T05:32:54.657Z,100887.40
2022-08-03T05:35:57.397Z,100890.80
2022-08-03T05:38:23.966Z,100896.57
2022-08-03T05:41:22.259Z,100902.44
2022-08-03T05:43:56.330Z,100904.35
2022-08-03T05:46:27.956Z,100901.77
2022-08-03T05:48:59.781Z,100897.75
2022-08-03T05:51:31.683Z,100898.48
2022-08-03T05:54:03.317Z,100898.71
2022-08-03T05:56:34.991Z,100904.23
2022-08-03T05:59:28.728Z,100911.24
2022-08-03T06:01:58.422Z,100909.09
2022-08-03T06:04:30.330Z,100909.33
2022-08-03T06:07:01.998Z,100909.43
2022-08-03T06:10:35.078Z,100909.55
2022-08-03T06:12:25.875Z,100905.63
2022-08-03T06:14:57.555Z,100906.11
2022-08-03T06:17:29.334Z,100906.14
2022-08-03T06:20:14.669Z,100908.66
2022-08-03T06:22:51.314Z,100913.34
2022-08-03T06:25:32.408Z,100913.52
2022-08-03T06:28:05.276Z,100910.67
2022-08-03T06:30:37.412Z,100911.41
2022-08-03T06:33:09.426Z,100914.95
2022-08-03T06:35:41.594Z,100915.26
2022-08-03T06:38:16.273Z,100916.39
2022-08-03T06:40:47.964Z,100918.53
2022-08-03T06:43:22.552Z,100914.45
2022-08-03T06:45:54.237Z,100916.09
2022-08-03T06:48:25.951Z,100922.23
2022-08-03T06:50:57.675Z,100923.78
2022-08-03T06:53:29.336Z,100923.79
2022-08-03T06:56:01.048Z,100920.44
2022-08-03T06:58:32.826Z,100921.03
2022-08-03T07:01:04.891Z,100922.23
2022-08-03T07:03:36.848Z,100924.99
2022-08-03T07:06:23.760Z,100923.58
2022-08-03T07:08:59.247Z,100922.43
2022-08-03T07:11:31.247Z,100925.42
2022-08-03T07:14:02.938Z,100926.40
2022-08-03T07:16:34.572Z,100925.98
2022-08-03T07:19:06.185Z,100927.16
2022-08-03T07:21:37.808Z,100923.05
2022-08-03T07:24:11.575Z,100919.13
2022-08-03T07:26:43.463Z,100916.48
2022-08-03T07:29:17.028Z,100914.43
2022-08-03T07:31:48.785Z,100915.48
2022-08-03T07:34:20.412Z,100917.42
2022-08-03T07:36:52.108Z,100916.48
2022-08-03T07:39:24.021Z,100915.69
2022-08-03T07:41:55.610Z,100916.12
2022-08-03T07:44:27.283Z,100912.60
2022-08-03T07:46:59.233Z,100907.69
2022-08-03T07:49:34.873Z,100910.70
2022-08-03T07:52:24.270Z,100915.71
2022-08-03T07:55:00.724Z,100918.30
2022-08-03T07:57:32.423Z,100919.39
2022-08-03T08:00:09.123Z,100918.60
2022-08-03T08:02:40.991Z,100916.98
2022-08-03T08:05:13.125Z,100916.34
2022-08-03T08:07:50.767Z,100913.80
2022-08-03T08:10:23.312Z,100907.16
2022-08-03T08:12:55.604Z,100910.42
2022-08-03T08:15:27.620Z,100906.83
2022-08-03T08:18:01.382Z,100907.04
2022-08-03T08:20:38.069Z,100908.89
2022-08-03T08:23:38.019Z,100909.83
2022-08-03T08:26:02.790Z,100908.77
2022-08-03T08:28:34.574Z,100911.70
2022-08-03T08:31:06.500Z,100906.35
2022-08-03T08:34:02.526Z,100906.96
2022-08-03T08:36:29.921Z,100906.67
2022-08-03T08:39:01.908Z,100907.33
2022-08-03T08:41:34.969Z,100910.39
2022-08-03T08:44:08.357Z,100910.44
2022-08-03T08:46:41.306Z,100911.44
2022-08-03T08:49:14.829Z,100909.59
2022-08-03T08:51:59.280Z,100909.09
2022-08-03T08:54:34.564Z,100906.38
2022-08-03T08:57:21.383Z,100908.91
2022-08-03T09:00:00.180Z,100915.02
2022-08-03T09:02:33.567Z,100911.17
2022-08-03T09:05:07.588Z,100912.15
2022-08-03T09:07:39.868Z,100913.36
2022-08-03T09:10:16.852Z,100909.17
2022-08-03T09:12:52.550Z,100906.55
2022-08-03T09:15:27.101Z,100907.45
2022-08-03T09:17:59.982Z,100907.41
2022-08-03T09:20:34.927Z,100909.41
2022-08-03T09:23:44.590Z,100908.20
2022-08-03T09:26:03.652Z,100907.86
2022-08-03T09:29:00.808Z,100904.17
2022-08-03T09:31:38.036Z,100902.81
2022-08-03T09:34:10.974Z,100903.45
2022-08-03T09:36:45.015Z,100899.11
2022-08-03T09:39:18.638Z,100896.00
2022-08-03T09:42:05.010Z,100896.23
2022-08-03T09:44:42.272Z,100895.79
2022-08-03T09:47:16.832Z,100900.88
2022-08-03T09:50:02.568Z,100899.02
2022-08-03T09:52:39.050Z,100899.08
2022-08-03T09:56:30.934Z,100892.36
2022-08-03T09:58:15.223Z,100887.59
2022-08-03T10:00:58.191Z,100886.61
2022-08-03T10:03:31.978Z,100887.71
2022-08-03T10:06:19.486Z,100886.40
2022-08-03T10:09:08.304Z,100882.23
2022-08-03T10:11:42.233Z,100879.76
2022-08-03T10:14:19.509Z,100878.77
2022-08-03T10:16:52.116Z,100883.81
2022-08-03T10:19:25.704Z,100880.80
2022-08-03T10:22:05.829Z,100878.63
2022-08-03T10:24:37.307Z,100878.23
2022-08-03T10:27:11.069Z,100874.45
2022-08-03T10:29:48.665Z,100872.05
2022-08-03T10:32:23.363Z,100873.02
2022-08-03T10:35:04.112Z,100872.60
2022-08-03T10:37:57.434Z,100873.36
2022-08-03T10:40:48.563Z,100868.08
2022-08-03T10:43:27.451Z,100870.29
2022-08-03T10:46:00.427Z,100869.62
2022-08-03T10:48:35.569Z,100864.32
2022-08-03T10:51:07.755Z,100862.14
2022-08-03T10:53:44.188Z,100864.75
2022-08-03T10:57:13.522Z,100857.64
2022-08-03T11:00:05.174Z,100858.92
2022-08-03T11:03:08.817Z,100854.82
2022-08-03T11:05:43.086Z,100851.16
2022-08-03T11:08:35.046Z,100849.98
2022-08-03T11:11:28.700Z,100852.37
2022-08-03T11:14:04.751Z,100847.60
2022-08-03T11:16:39.202Z,100845.98
2022-08-03T11:19:12.985Z,100849.48
2022-08-03T11:21:59.100Z,100843.06
2022-08-03T11:25:01.085Z,100843.75
2022-08-03T11:27:34.251Z,100843.23
2022-08-03T11:30:08.950Z,100840.11
2022-08-03T11:33:03.226Z,100839.45
2022-08-03T11:35:36.755Z,100831.73
2022-08-03T11:38:14.854Z,100834.52
2022-08-03T11:40:48.046Z,100831.46
2022-08-03T11:43:46.766Z,100836.41
2022-08-03T11:46:29.423Z,100842.81
2022-08-03T11:49:10.832Z,100838.89
2022-08-03T11:51:42.940Z,100832.00
2022-08-03T11:54:14.756Z,100832.84
2022-08-03T11:56:51.213Z,100833.46
2022-08-03T11:59:35.171Z,100832.53
2022-08-03T12:02:11.272Z,100832.92
2022-08-03T12:04:53.949Z,100824.85
2022-08-03T12:08:03.864Z,100822.40
2022-08-03T12:10:19.364Z,100821.92
2022-08-03T12:12:58.562Z,100822.52
2022-08-03T12:15:34.051Z,100825.02
2022-08-03T12:18:14.385Z,100821.38
2022-08-03T12:20:46.814Z,100824.74
2022-08-03T12:23:19.493Z,100824.27
2022-08-03T12:25:51.310Z,100829.58
2022-08-03T12:28:30.425Z,100821.37
2022-08-03T12:31:10.318Z,100812.37
2022-08-03T12:34:04.235Z,100801.66
2022-08-03T12:36:37.580Z,100798.83
2022-08-03T12:39:12.055Z,100801.60
2022-08-03T12:41:44.301Z,100802.23
2022-08-03T12:44:16.824Z,100799.63
2022-08-03T12:46:58.475Z,100794.37
2022-08-03T12:49:30.619Z,100793.38
2022-08-03T12:52:07.031Z,100795.57
2022-08-03T12:54:39.405Z,100793.79
2022-08-03T12:57:15.869Z,100793.38
2022-08-03T12:59:52.800Z,100787.08
2022-08-03T13:02:27.563Z,100785.55
2022-08-03T13:05:00.408Z,100786.52
2022-08-03T13:07:45.882Z,100784.73
2022-08-03T13:10:31.114Z,100782.79
2022-08-03T13:13:04.567Z,100782.38
2022-08-03T13:15:38.747Z,100781.23
2022-08-03T13:18:19.886Z,100779.27
2022-08-03T13:20:51.616Z,100778.68
2022-08-03T13:23:23.428Z,100776.91
2022-08-03T13:25:56.201Z,100774.61
2022-08-03T13:28:28.010Z,100778.88
2022-08-03T13:31:00.116Z,100776.31
2022-08-03T13:33:31.898Z,100770.73
2022-08-03T13:36:03.665Z,100772.29
2022-08-03T13:38:35.414Z,100770.55
2022-08-03T13:41:07.255Z,100769.80
2022-08-03T13:43:40.207Z,100764.45
2022-08-03T13:46:11.872Z,100758.71
2022-08-03T13:48:43.413Z,100754.63
2022-08-03T13:51:22.422Z,100755.62
2022-08-03T13:53:54.658Z,100758.53
2022-08-03T13:56:26.379Z,100755.17
2022-08-03T13:58:58.775Z,100751.18
2022-08-03T14:01:54.110Z,100747.70
2022-08-03T14:04:22.768Z,100743.29
2022-08-03T14:06:54.487Z,100738.73
2022-08-03T14:09:26.052Z,100737.91
2022-08-03T14:12:08.175Z,100728.94
2022-08-03T14:14:40.500Z,100728.17
2022-08-03T14:17:12.370Z,100732.23
2022-08-03T14:19:53.187Z,100730.91
2022-08-03T14:22:25.680Z,100728.55
2022-08-03T14:24:57.994Z,100726.48
2022-08-03T14:27:29.967Z,100722.91
2022-08-03T14:30:01.673Z,100724.84
2022-08-03T14:32:33.411Z,100724.45
2022-08-03T14:35:06.126Z,100726.76
2022-08-03T14:37:38.233Z,100724.48
2022-08-03T14:40:11.840Z,100719.15
2022-08-03T14:42:43.583Z,100719.56
2022-08-03T14:45:20.042Z,100716.84
2022-08-03T14:50:32.570Z,100712.48
2022-08-03T14:50:50.178Z,100711.32
2022-08-03T14:53:22.605Z,100713.19
2022-08-03T14:55:54.596Z,100711.41
2022-08-03T14:58:27.295Z,100711.61
2022-08-03T15:00:58.960Z,100714.60
2022-08-03T15:03:30.714Z,100715.85
2022-08-03T15:06:02.337Z,100715.02
2022-08-03T15:08:34.105Z,100712.04
2022-08-03T15:11:05.726Z,100715.38
2022-08-03T15:13:37.326Z,100709.84
2022-08-03T15:16:10.881Z,100711.84
2022-08-03T15:18:42.592Z,100711.84
2022-08-03T15:21:16.592Z,100708.14
2022-08-03T15:24:06.526Z,100706.08
2022-08-03T15:26:41.534Z,100705.36
2022-08-03T15:30:05.735Z,100709.13
2022-08-03T15:32:09.236Z,100706.11
2022-08-03T15:34:41.982Z,100703.50
2022-08-03T15:37:25.781Z,100700.56
2022-08-03T15:39:58.360Z,100696.85
2022-08-03T15:42:34.272Z,100700.59
2022-08-03T15:45:06.737Z,100698.87
2022-08-03T15:47:38.858Z,100694.88
2022-08-03T15:50:14.413Z,100697.44
2022-08-03T15:52:46.210Z,100697.20
2022-08-03T15:55:17.968Z,100700.34
2022-08-03T15:59:09.527Z,100701.71
2022-08-03T16:00:41.841Z,100697.56
2022-08-03T16:03:13.488Z,100696.90
2022-08-03T16:05:45.265Z,100694.41
2022-08-03T16:08:16.992Z,100696.12
2022-08-03T16:10:48.955Z,100693.46
2022-08-03T16:13:22.560Z,100692.86
2022-08-03T16:16:14.236Z,100692.49
2022-08-03T16:18:46.019Z,100694.49
2022-08-03T16:21:19.491Z,100688.36
2022-08-03T16:23:53.573Z,100690.64
2022-08-03T16:26:25.672Z,100685.98
2022-08-03T16:28:59.765Z,100686.36
2022-08-03T16:31:31.653Z,100684.98
2022-08-03T16:34:03.380Z,100682.46
2022-08-03T16:36:35.160Z,100683.09
2022-08-03T16:39:06.961Z,100679.81
2022-08-03T16:41:53.923Z,100682.19
2022-08-03T16:44:31.854Z,100680.52
2022-08-03T16:47:03.904Z,100681.75
2022-08-03T16:49:53.235Z,100679.79
2022-08-03T16:52:27.929Z,100680.23
2022-08-03T16:54:59.506Z,100680.41
2022-08-03T16:57:59.146Z,100678.76
2022-08-03T17:00:34.362Z,100681.98
2022-08-03T17:03:19.041Z,100683.28
2022-08-03T17:05:56.130Z,100683.48
2022-08-03T17:08:32.471Z,100683.75
2022-08-03T17:11:04.021Z,100685.52
2022-08-03T17:13:39.396Z,100685.14
2022-08-03T17:16:15.150Z,100684.89
2022-08-03T17:18:52.963Z,100685.79
2022-08-03T17:21:29.553Z,100690.92
2022-08-03T17:24:12.051Z,100686.33
2022-08-03T17:26:49.884Z,100690.78
2022-08-03T17:29:25.121Z,100691.21
2022-08-03T17:31:56.948Z,100690.44
2022-08-03T17:34:28.629Z,100690.30
2022-08-03T17:37:04.180Z,100690.06
2022-08-03T17:39:57.780Z,100691.67
2022-08-03T17:42:32.016Z,100690.36
2022-08-03T17:45:06.589Z,100688.42
2022-08-03T17:47:42.838Z,100688.27
2022-08-03T17:50:24.875Z,100690.83
2022-08-03T17:53:15.240Z,100694.45
2022-08-03T17:56:38.850Z,100694.59
2022-08-03T17:59:08.500Z,100697.02
2022-08-03T18:02:12.298Z,100697.26
2022-08-03T18:05:00.514Z,100701.25
2022-08-03T18:07:41.323Z,100705.11
2022-08-03T18:10:17.338Z,100703.40
2022-08-03T18:12:56.500Z,100699.99
2022-08-03T18:15:41.237Z,100701.78
2022-08-03T18:18:15.977Z,100701.45
2022-08-03T18:20:48.655Z,100703.23
2022-08-03T18:23:36.920Z,100704.33
2022-08-03T18:26:12.234Z,100707.17
2022-08-03T18:28:45.019Z,100706.13
2022-08-03T18:31:33.237Z,100707.98
2022-08-03T18:34:18.464Z,100711.37
2022-08-03T18:37:07.777Z,100717.60
2022-08-03T18:42:35.314Z,100718.88
2022-08-03T18:45:54.879Z,100718.23
2022-08-03T18:48:11.168Z,100717.00
2022-08-03T18:50:50.159Z,100724.73
2022-08-03T18:54:03.419Z,100727.29
2022-08-03T18:56:32.819Z,100726.51
2022-08-03T18:59:11.040Z,100730.27
2022-08-03T19:01:58.916Z,100731.41
2022-08-03T19:04:36.645Z,100728.53
2022-08-03T19:07:11.034Z,100727.30
2022-08-03T19:09:54.487Z,100731.74
2022-08-03T19:12:37.436Z,100731.95
2022-08-03T19:15:15.694Z,100734.40
2022-08-03T19:17:53.008Z,100736.50
2022-08-03T19:23:24.289Z,100732.55
2022-08-03T19:25:57.692Z,100733.89
2022-08-03T19:28:30.691Z,100731.05
2022-08-03T19:31:06.445Z,100732.80
2022-08-03T19:33:55.804Z,100733.64
2022-08-03T19:36:32.449Z,100734.14
2022-08-03T19:39:09.121Z,100737.30
2022-08-03T19:41:42.906Z,100737.16
2022-08-03T19:44:30.509Z,100735.65
2022-08-03T19:47:07.970Z,100742.13
2022-08-03T19:50:02.807Z,100739.06
2022-08-03T19:52:35.623Z,100737.93
2022-08-03T19:55:12.504Z,100737.23
2022-08-03T19:57:49.176Z,100738.48
2022-08-03T20:00:26.686Z,100734.72
2022-08-03T20:03:03.678Z,100736.02
2022-08-03T20:05:41.036Z,100737.19
2022-08-03T20:08:25.411Z,100739.20
2022-08-03T20:10:59.757Z,100741.48
2022-08-03T20:13:39.059Z,100743.36
2022-08-03T20:16:10.935Z,100746.69
2022-08-03T20:18:43.374Z,100741.70
2022-08-03T20:21:18.828Z,100738.32
2022-08-03T20:24:03.177Z,100743.49
2022-08-03T20:26:54.011Z,100739.91
2022-08-03T20:30:06.088Z,100741.20
2022-08-03T20:32:24.746Z,100740.27
2022-08-03T20:34:56.567Z,100739.68
2022-08-03T20:37:30.558Z,100742.09
2022-08-03T20:40:02.872Z,100743.21
2022-08-03T20:42:36.121Z,100746.79
2022-08-03T20:45:13.981Z,100747.68
2022-08-03T20:48:03.379Z,100750.06
2022-08-03T20:50:37.029Z,100750.52
2022-08-03T20:53:09.316Z,100754.50
2022-08-03T20:55:47.653Z,100759.40
2022-08-03T20:58:33.922Z,100758.23
2022-08-03T21:01:07.828Z,100759.73
2022-08-03T21:03:52.244Z,100760.75
2022-08-03T21:06:29.922Z,100761.65
2022-08-03T21:09:06.882Z,100762.23
2022-08-03T21:11:44.484Z,100761.20
2022-08-03T21:13:04.493Z,100717.27
2022-08-03T21:13:09.782Z,100733.60
2022-08-03T21:14:24.418Z,100760.06
2022-08-03T21:16:58.898Z,100760.63
2022-08-03T21:19:33.786Z,100759.73
2022-08-03T21:22:09.353Z,100757.34
2022-08-03T21:24:44.757Z,100756.45
2022-08-03T21:27:17.453Z,100755.69
2022-08-03T21:29:52.981Z,100756.56
2022-08-03T21:32:32.781Z,100758.61
2022-08-03T21:35:05.386Z,100759.03
2022-08-03T21:37:38.098Z,100753.59
2022-08-03T21:40:16.059Z,100755.16
2022-08-03T21:42:47.789Z,100754.46
2022-08-03T21:45:19.494Z,100756.77
2022-08-03T21:47:51.489Z,100754.66
2022-08-03T21:50:23.620Z,100753.52
2022-08-03T21:52:55.744Z,100755.72
2022-08-03T21:55:30.159Z,100757.05
2022-08-03T21:58:07.336Z,100758.89
2022-08-03T22:00:39.680Z,100756.50
2022-08-03T22:03:17.393Z,100756.16
2022-08-03T22:05:50.808Z,100757.81
2022-08-03T22:08:22.797Z,100759.95
2022-08-03T22:10:57.787Z,100764.38
2022-08-03T22:13:43.519Z,100764.88
2022-08-03T22:16:18.920Z,100764.98
2022-08-03T22:18:51.094Z,100767.80
2022-08-03T22:21:36.288Z,100766.98
2022-08-03T22:24:12.216Z,100766.65
2022-08-03T22:27:08.714Z,100768.84
2022-08-03T22:29:43.188Z,100767.40
2022-08-03T22:32:15.309Z,100764.41
2022-08-03T22:34:50.132Z,100768.98
2022-08-03T22:37:26.172Z,100767.93
2022-08-03T22:39:59.769Z,100767.20
2022-08-03T22:42:35.174Z,100768.85
2022-08-03T22:45:10.533Z,100772.70
2022-08-03T22:48:03.059Z,100773.65
2022-08-03T22:50:35.875Z,100777.20
2022-08-03T22:53:09.588Z,100779.83
2022-08-03T22:55:42.087Z,100783.39
2022-08-03T22:58:15.597Z,100784.22
2022-08-03T23:00:55.816Z,100783.45
2022-08-03T23:04:01.221Z,100782.52
2022-08-03T23:06:25.080Z,100780.91
2022-08-03T23:08:57.182Z,100782.79
2022-08-03T23:11:29.792Z,100786.52
2022-08-03T23:14:05.554Z,100787.17
2022-08-03T23:16:39.511Z,100784.99
2022-08-03T23:19:16.966Z,100785.77
2022-08-03T23:22:03.861Z,100784.77
2022-08-03T23:24:37.149Z,100785.30
2022-08-03T23:27:10.600Z,100785.13
2022-08-03T23:29:45.003Z,100785.58
2022-08-03T23:32:20.939Z,100782.62
2022-08-03T23:35:11.875Z,100783.11
2022-08-03T23:38:04.471Z,100778.80
2022-08-03T23:40:37.497Z,100776.27
2022-08-03T23:43:09.665Z,100779.61
2022-08-03T23:45:50.486Z,100776.95
2022-08-03T23:48:22.166Z,100783.61
2022-08-03T23:51:01.777Z,100783.67
2022-08-03T23:53:41.791Z,100784.07
2022-08-03T23:56:22.183Z,100784.21
2022-08-03T23:59:07.923Z,100785.05
